sensor_id;sensor_type;location;lat;lon;timestamp;P1;durP1;ratioP1;P2;durP2;ratioP2
11541;SDS011;5827;49.482;7.716;2023-02-11T00:01:53;60.90;;;36.20;;
11541;SDS011;5827;49.482;7.716;2023-02-11T00:03:55;64.60;;;37.10;;
11541;SDS011;5827;49.482;7.716;2023-02-11T00:05:58;62.07;;;36.20;;
11541;SDS011;5827;49.482;7.716;2023-02-11T00:08:02;61.00;;;35.20;;
11541;SDS011;5827;49.482;7.716;2023-02-11T00:10:04;70.73;;;37.73;;
11541;SDS011;5827;49.482;7.716;2023-02-11T00:12:08;66.97;;;38.97;;
11541;SDS011;5827;49.482;7.716;2023-02-11T00:14:09;64.80;;;38.30;;
11541;SDS011;5827;49.482;7.716;2023-02-11T00:16:13;61.63;;;37.60;;
11541;SDS011;5827;49.482;7.716;2023-02-11T00:18:15;63.80;;;38.07;;
11541;SDS011;5827;49.482;7.716;2023-02-11T00:20:17;63.87;;;39.73;;
11541;SDS011;5827;49.482;7.716;2023-02-11T00:22:19;64.63;;;38.23;;
11541;SDS011;5827;49.482;7.716;2023-02-11T00:24:21;67.83;;;39.13;;
11541;SDS011;5827;49.482;7.716;2023-02-11T00:26:23;67.57;;;39.63;;
11541;SDS011;5827;49.482;7.716;2023-02-11T00:28:28;66.87;;;38.27;;
11541;SDS011;5827;49.482;7.716;2023-02-11T00:30:29;63.60;;;38.70;;
11541;SDS011;5827;49.482;7.716;2023-02-11T00:32:31;66.47;;;38.53;;
11541;SDS011;5827;49.482;7.716;2023-02-11T00:34:33;66.60;;;37.87;;
11541;SDS011;5827;49.482;7.716;2023-02-11T00:36:35;68.23;;;37.93;;
11541;SDS011;5827;49.482;7.716;2023-02-11T00:38:37;62.17;;;37.20;;
11541;SDS011;5827;49.482;7.716;2023-02-11T00:40:39;59.60;;;35.63;;
11541;SDS011;5827;49.482;7.716;2023-02-11T00:42:40;62.77;;;37.77;;
11541;SDS011;5827;49.482;7.716;2023-02-11T00:44:43;62.63;;;37.17;;
11541;SDS011;5827;49.482;7.716;2023-02-11T00:46:45;58.60;;;36.83;;
11541;SDS011;5827;49.482;7.716;2023-02-11T00:48:47;65.20;;;37.40;;
11541;SDS011;5827;49.482;7.716;2023-02-11T00:50:50;59.73;;;36.93;;
11541;SDS011;5827;49.482;7.716;2023-02-11T00:52:52;58.77;;;35.07;;
11541;SDS011;5827;49.482;7.716;2023-02-11T00:54:53;62.50;;;36.50;;
11541;SDS011;5827;49.482;7.716;2023-02-11T00:56:55;61.40;;;36.33;;
11541;SDS011;5827;49.482;7.716;2023-02-11T00:58:57;58.73;;;37.43;;
11541;SDS011;5827;49.482;7.716;2023-02-11T01:01:00;63.33;;;36.60;;
11541;SDS011;5827;49.482;7.716;2023-02-11T01:03:01;60.17;;;36.90;;
11541;SDS011;5827;49.482;7.716;2023-02-11T01:05:04;62.63;;;36.40;;
11541;SDS011;5827;49.482;7.716;2023-02-11T01:07:06;60.50;;;36.37;;
11541;SDS011;5827;49.482;7.716;2023-02-11T01:09:07;60.07;;;36.00;;
11541;SDS011;5827;49.482;7.716;2023-02-11T01:11:11;61.10;;;36.50;;
11541;SDS011;5827;49.482;7.716;2023-02-11T01:13:14;57.27;;;34.93;;
11541;SDS011;5827;49.482;7.716;2023-02-11T01:15:16;61.63;;;36.13;;
11541;SDS011;5827;49.482;7.716;2023-02-11T01:17:20;62.30;;;35.13;;
11541;SDS011;5827;49.482;7.716;2023-02-11T01:19:22;61.53;;;35.50;;
11541;SDS011;5827;49.482;7.716;2023-02-11T01:21:24;60.37;;;36.53;;
11541;SDS011;5827;49.482;7.716;2023-02-11T01:23:25;65.33;;;39.17;;
11541;SDS011;5827;49.482;7.716;2023-02-11T01:25:27;60.17;;;37.50;;
11541;SDS011;5827;49.482;7.716;2023-02-11T01:27:28;66.63;;;39.23;;
11541;SDS011;5827;49.482;7.716;2023-02-11T01:29:30;66.90;;;39.20;;
11541;SDS011;5827;49.482;7.716;2023-02-11T01:31:32;64.53;;;38.40;;
11541;SDS011;5827;49.482;7.716;2023-02-11T01:33:35;66.83;;;39.17;;
11541;SDS011;5827;49.482;7.716;2023-02-11T01:35:37;59.63;;;36.33;;
11541;SDS011;5827;49.482;7.716;2023-02-11T01:37:39;62.57;;;38.13;;
11541;SDS011;5827;49.482;7.716;2023-02-11T01:39:41;60.93;;;37.70;;
11541;SDS011;5827;49.482;7.716;2023-02-11T01:41:43;60.97;;;37.80;;
11541;SDS011;5827;49.482;7.716;2023-02-11T01:43:45;62.70;;;38.00;;
11541;SDS011;5827;49.482;7.716;2023-02-11T01:45:56;63.60;;;38.73;;
11541;SDS011;5827;49.482;7.716;2023-02-11T01:48:00;63.80;;;37.73;;
11541;SDS011;5827;49.482;7.716;2023-02-11T01:50:04;61.20;;;37.27;;
11541;SDS011;5827;49.482;7.716;2023-02-11T01:52:06;58.33;;;35.60;;
11541;SDS011;5827;49.482;7.716;2023-02-11T01:54:12;58.40;;;36.13;;
11541;SDS011;5827;49.482;7.716;2023-02-11T01:56:35;56.27;;;35.77;;
11541;SDS011;5827;49.482;7.716;2023-02-11T01:58:58;60.30;;;36.80;;
11541;SDS011;5827;49.482;7.716;2023-02-11T02:01:04;65.10;;;37.70;;
11541;SDS011;5827;49.482;7.716;2023-02-11T02:03:09;60.93;;;36.70;;
11541;SDS011;5827;49.482;7.716;2023-02-11T02:05:18;59.50;;;35.13;;
11541;SDS011;5827;49.482;7.716;2023-02-11T02:07:25;61.50;;;36.90;;
11541;SDS011;5827;49.482;7.716;2023-02-11T02:09:33;59.17;;;36.70;;
11541;SDS011;5827;49.482;7.716;2023-02-11T02:11:39;62.83;;;38.00;;
11541;SDS011;5827;49.482;7.716;2023-02-11T02:13:41;64.80;;;37.63;;
11541;SDS011;5827;49.482;7.716;2023-02-11T02:15:43;60.53;;;37.60;;
11541;SDS011;5827;49.482;7.716;2023-02-11T02:18:01;60.17;;;36.20;;
11541;SDS011;5827;49.482;7.716;2023-02-11T02:20:12;61.13;;;36.33;;
11541;SDS011;5827;49.482;7.716;2023-02-11T02:22:41;66.00;;;38.60;;
11541;SDS011;5827;49.482;7.716;2023-02-11T02:25:09;61.43;;;35.90;;
11541;SDS011;5827;49.482;7.716;2023-02-11T02:30:10;60.00;;;35.80;;
11541;SDS011;5827;49.482;7.716;2023-02-11T02:35:18;57.70;;;33.77;;
11541;SDS011;5827;49.482;7.716;2023-02-11T02:37:29;57.30;;;35.87;;
11541;SDS011;5827;49.482;7.716;2023-02-11T02:39:37;58.23;;;36.17;;
11541;SDS011;5827;49.482;7.716;2023-02-11T02:41:39;59.30;;;35.03;;
11541;SDS011;5827;49.482;7.716;2023-02-11T02:43:43;55.77;;;35.63;;
11541;SDS011;5827;49.482;7.716;2023-02-11T02:45:46;57.40;;;35.23;;
11541;SDS011;5827;49.482;7.716;2023-02-11T02:47:48;57.37;;;35.93;;
11541;SDS011;5827;49.482;7.716;2023-02-11T02:49:50;57.53;;;35.03;;
11541;SDS011;5827;49.482;7.716;2023-02-11T02:57:01;57.80;;;35.23;;
11541;SDS011;5827;49.482;7.716;2023-02-11T02:59:30;57.90;;;35.23;;
11541;SDS011;5827;49.482;7.716;2023-02-11T03:01:45;59.07;;;35.23;;
11541;SDS011;5827;49.482;7.716;2023-02-11T03:04:00;55.67;;;35.53;;
11541;SDS011;5827;49.482;7.716;2023-02-11T03:06:14;59.97;;;35.63;;
11541;SDS011;5827;49.482;7.716;2023-02-11T03:08:24;54.23;;;33.03;;
11541;SDS011;5827;49.482;7.716;2023-02-11T03:10:31;59.97;;;34.83;;
11541;SDS011;5827;49.482;7.716;2023-02-11T03:12:37;55.37;;;34.30;;
11541;SDS011;5827;49.482;7.716;2023-02-11T03:14:40;59.80;;;35.83;;
11541;SDS011;5827;49.482;7.716;2023-02-11T03:16:42;57.50;;;35.37;;
11541;SDS011;5827;49.482;7.716;2023-02-11T03:18:46;55.60;;;35.60;;
11541;SDS011;5827;49.482;7.716;2023-02-11T03:20:55;59.13;;;34.53;;
11541;SDS011;5827;49.482;7.716;2023-02-11T03:23:01;59.33;;;34.83;;
11541;SDS011;5827;49.482;7.716;2023-02-11T03:25:08;56.70;;;33.47;;
11541;SDS011;5827;49.482;7.716;2023-02-11T03:27:11;60.87;;;35.40;;
11541;SDS011;5827;49.482;7.716;2023-02-11T03:29:30;56.60;;;33.77;;
11541;SDS011;5827;49.482;7.716;2023-02-11T03:31:37;55.77;;;34.10;;
11541;SDS011;5827;49.482;7.716;2023-02-11T03:33:45;56.27;;;33.43;;
11541;SDS011;5827;49.482;7.716;2023-02-11T03:35:57;53.30;;;34.23;;
11541;SDS011;5827;49.482;7.716;2023-02-11T03:38:03;57.40;;;34.70;;
11541;SDS011;5827;49.482;7.716;2023-02-11T03:40:12;54.90;;;33.30;;
11541;SDS011;5827;49.482;7.716;2023-02-11T03:42:18;56.93;;;34.37;;
11541;SDS011;5827;49.482;7.716;2023-02-11T03:44:25;61.90;;;35.23;;
11541;SDS011;5827;49.482;7.716;2023-02-11T03:46:33;53.83;;;33.60;;
11541;SDS011;5827;49.482;7.716;2023-02-11T03:48:39;56.87;;;34.20;;
11541;SDS011;5827;49.482;7.716;2023-02-11T03:50:45;57.50;;;35.33;;
11541;SDS011;5827;49.482;7.716;2023-02-11T03:52:51;58.87;;;35.47;;
11541;SDS011;5827;49.482;7.716;2023-02-11T03:54:56;55.90;;;35.13;;
11541;SDS011;5827;49.482;7.716;2023-02-11T03:57:02;54.20;;;34.57;;
11541;SDS011;5827;49.482;7.716;2023-02-11T03:59:04;54.37;;;34.30;;
11541;SDS011;5827;49.482;7.716;2023-02-11T04:01:07;54.30;;;34.80;;
11541;SDS011;5827;49.482;7.716;2023-02-11T04:03:10;53.83;;;33.80;;
11541;SDS011;5827;49.482;7.716;2023-02-11T04:05:13;57.63;;;35.73;;
11541;SDS011;5827;49.482;7.716;2023-02-11T04:07:16;54.53;;;33.63;;
11541;SDS011;5827;49.482;7.716;2023-02-11T04:09:18;57.73;;;34.40;;
11541;SDS011;5827;49.482;7.716;2023-02-11T04:11:20;50.03;;;33.60;;
11541;SDS011;5827;49.482;7.716;2023-02-11T04:13:24;51.70;;;32.63;;
11541;SDS011;5827;49.482;7.716;2023-02-11T04:15:26;55.87;;;34.13;;
11541;SDS011;5827;49.482;7.716;2023-02-11T04:17:28;58.40;;;34.60;;
11541;SDS011;5827;49.482;7.716;2023-02-11T04:19:30;57.87;;;35.10;;
11541;SDS011;5827;49.482;7.716;2023-02-11T04:21:32;59.10;;;34.73;;
11541;SDS011;5827;49.482;7.716;2023-02-11T04:23:34;57.63;;;34.60;;
11541;SDS011;5827;49.482;7.716;2023-02-11T04:25:38;62.60;;;35.00;;
11541;SDS011;5827;49.482;7.716;2023-02-11T04:27:40;54.03;;;32.60;;
11541;SDS011;5827;49.482;7.716;2023-02-11T04:32:22;54.47;;;33.80;;
11541;SDS011;5827;49.482;7.716;2023-02-11T04:34:24;57.93;;;34.87;;
11541;SDS011;5827;49.482;7.716;2023-02-11T04:36:26;58.57;;;36.13;;
11541;SDS011;5827;49.482;7.716;2023-02-11T04:38:27;62.00;;;36.20;;
11541;SDS011;5827;49.482;7.716;2023-02-11T04:40:29;56.07;;;33.63;;
11541;SDS011;5827;49.482;7.716;2023-02-11T04:42:30;57.60;;;33.47;;
11541;SDS011;5827;49.482;7.716;2023-02-11T04:44:32;57.10;;;34.63;;
11541;SDS011;5827;49.482;7.716;2023-02-11T04:46:33;51.70;;;32.73;;
11541;SDS011;5827;49.482;7.716;2023-02-11T04:48:36;55.17;;;33.67;;
11541;SDS011;5827;49.482;7.716;2023-02-11T04:50:39;53.93;;;33.43;;
11541;SDS011;5827;49.482;7.716;2023-02-11T04:52:41;56.87;;;34.20;;
11541;SDS011;5827;49.482;7.716;2023-02-11T04:54:43;53.87;;;32.93;;
11541;SDS011;5827;49.482;7.716;2023-02-11T04:56:45;51.53;;;32.10;;
11541;SDS011;5827;49.482;7.716;2023-02-11T04:58:46;52.97;;;32.07;;
11541;SDS011;5827;49.482;7.716;2023-02-11T05:00:48;54.67;;;33.73;;
11541;SDS011;5827;49.482;7.716;2023-02-11T05:02:49;55.40;;;32.67;;
11541;SDS011;5827;49.482;7.716;2023-02-11T05:04:52;52.83;;;31.67;;
11541;SDS011;5827;49.482;7.716;2023-02-11T05:06:54;53.70;;;32.23;;
11541;SDS011;5827;49.482;7.716;2023-02-11T05:08:55;56.30;;;33.43;;
11541;SDS011;5827;49.482;7.716;2023-02-11T05:10:57;54.07;;;32.07;;
11541;SDS011;5827;49.482;7.716;2023-02-11T05:13:01;53.77;;;30.80;;
11541;SDS011;5827;49.482;7.716;2023-02-11T05:15:03;46.90;;;30.77;;
11541;SDS011;5827;49.482;7.716;2023-02-11T05:17:05;54.17;;;33.37;;
11541;SDS011;5827;49.482;7.716;2023-02-11T05:19:07;52.13;;;31.70;;
11541;SDS011;5827;49.482;7.716;2023-02-11T05:21:11;48.80;;;29.77;;
11541;SDS011;5827;49.482;7.716;2023-02-11T05:23:14;51.57;;;30.17;;
11541;SDS011;5827;49.482;7.716;2023-02-11T05:25:16;47.90;;;28.80;;
11541;SDS011;5827;49.482;7.716;2023-02-11T05:27:17;50.33;;;30.33;;
11541;SDS011;5827;49.482;7.716;2023-02-11T05:29:19;49.13;;;29.87;;
11541;SDS011;5827;49.482;7.716;2023-02-11T05:31:20;54.70;;;31.87;;
11541;SDS011;5827;49.482;7.716;2023-02-11T05:33:22;54.27;;;31.27;;
11541;SDS011;5827;49.482;7.716;2023-02-11T05:35:25;54.00;;;30.77;;
11541;SDS011;5827;49.482;7.716;2023-02-11T05:37:28;52.77;;;32.40;;
11541;SDS011;5827;49.482;7.716;2023-02-11T05:39:29;65.50;;;39.17;;
11541;SDS011;5827;49.482;7.716;2023-02-11T05:41:31;63.13;;;36.50;;
11541;SDS011;5827;49.482;7.716;2023-02-11T05:43:33;59.47;;;36.37;;
11541;SDS011;5827;49.482;7.716;2023-02-11T05:45:35;59.40;;;34.47;;
11541;SDS011;5827;49.482;7.716;2023-02-11T05:47:36;54.90;;;33.90;;
11541;SDS011;5827;49.482;7.716;2023-02-11T05:49:37;56.47;;;33.60;;
11541;SDS011;5827;49.482;7.716;2023-02-11T05:51:39;60.07;;;34.57;;
11541;SDS011;5827;49.482;7.716;2023-02-11T05:53:42;55.60;;;32.30;;
11541;SDS011;5827;49.482;7.716;2023-02-11T05:55:43;54.30;;;32.70;;
11541;SDS011;5827;49.482;7.716;2023-02-11T05:57:45;52.93;;;32.17;;
11541;SDS011;5827;49.482;7.716;2023-02-11T05:59:46;51.70;;;30.83;;
11541;SDS011;5827;49.482;7.716;2023-02-11T06:01:49;58.00;;;32.60;;
11541;SDS011;5827;49.482;7.716;2023-02-11T06:03:51;53.63;;;32.40;;
11541;SDS011;5827;49.482;7.716;2023-02-11T06:05:52;54.90;;;31.27;;
11541;SDS011;5827;49.482;7.716;2023-02-11T06:07:54;54.30;;;31.20;;
11541;SDS011;5827;49.482;7.716;2023-02-11T06:09:57;51.07;;;29.50;;
11541;SDS011;5827;49.482;7.716;2023-02-11T06:11:58;50.57;;;29.73;;
11541;SDS011;5827;49.482;7.716;2023-02-11T06:14:00;51.03;;;30.20;;
11541;SDS011;5827;49.482;7.716;2023-02-11T06:16:02;48.20;;;29.53;;
11541;SDS011;5827;49.482;7.716;2023-02-11T06:18:03;46.97;;;29.10;;
11541;SDS011;5827;49.482;7.716;2023-02-11T06:20:06;47.67;;;29.70;;
11541;SDS011;5827;49.482;7.716;2023-02-11T06:22:09;48.70;;;30.00;;
11541;SDS011;5827;49.482;7.716;2023-02-11T06:24:11;47.00;;;30.53;;
11541;SDS011;5827;49.482;7.716;2023-02-11T06:26:16;48.77;;;29.47;;
11541;SDS011;5827;49.482;7.716;2023-02-11T06:28:19;52.33;;;29.77;;
11541;SDS011;5827;49.482;7.716;2023-02-11T06:30:20;51.23;;;30.50;;
11541;SDS011;5827;49.482;7.716;2023-02-11T06:32:22;51.77;;;30.10;;
11541;SDS011;5827;49.482;7.716;2023-02-11T06:34:24;52.00;;;31.70;;
11541;SDS011;5827;49.482;7.716;2023-02-11T06:36:25;51.47;;;31.73;;
11541;SDS011;5827;49.482;7.716;2023-02-11T06:38:27;57.93;;;32.83;;
11541;SDS011;5827;49.482;7.716;2023-02-11T06:40:28;54.83;;;31.47;;
11541;SDS011;5827;49.482;7.716;2023-02-11T06:42:31;53.13;;;32.33;;
11541;SDS011;5827;49.482;7.716;2023-02-11T06:44:33;54.23;;;31.60;;
11541;SDS011;5827;49.482;7.716;2023-02-11T06:46:35;60.13;;;32.70;;
11541;SDS011;5827;49.482;7.716;2023-02-11T06:48:36;55.17;;;32.30;;
11541;SDS011;5827;49.482;7.716;2023-02-11T06:50:38;51.27;;;31.43;;
11541;SDS011;5827;49.482;7.716;2023-02-11T06:52:39;54.37;;;32.30;;
11541;SDS011;5827;49.482;7.716;2023-02-11T06:54:41;52.37;;;32.67;;
11541;SDS011;5827;49.482;7.716;2023-02-11T06:56:43;52.27;;;32.33;;
11541;SDS011;5827;49.482;7.716;2023-02-11T06:58:46;55.07;;;31.87;;
11541;SDS011;5827;49.482;7.716;2023-02-11T07:00:48;53.93;;;31.13;;
11541;SDS011;5827;49.482;7.716;2023-02-11T07:05:44;51.57;;;29.47;;
11541;SDS011;5827;49.482;7.716;2023-02-11T07:07:55;50.00;;;28.63;;
11541;SDS011;5827;49.482;7.716;2023-02-11T07:09:57;50.17;;;30.47;;
11541;SDS011;5827;49.482;7.716;2023-02-11T07:11:58;46.57;;;29.30;;
11541;SDS011;5827;49.482;7.716;2023-02-11T07:14:02;50.87;;;30.87;;
11541;SDS011;5827;49.482;7.716;2023-02-11T07:16:10;67.37;;;35.03;;
11541;SDS011;5827;49.482;7.716;2023-02-11T07:18:14;61.67;;;33.73;;
11541;SDS011;5827;49.482;7.716;2023-02-11T07:20:16;73.37;;;39.50;;
11541;SDS011;5827;49.482;7.716;2023-02-11T07:22:20;64.67;;;36.40;;
11541;SDS011;5827;49.482;7.716;2023-02-11T07:24:22;60.30;;;32.67;;
11541;SDS011;5827;49.482;7.716;2023-02-11T07:26:24;54.13;;;32.33;;
11541;SDS011;5827;49.482;7.716;2023-02-11T07:28:42;51.53;;;31.13;;
11541;SDS011;5827;49.482;7.716;2023-02-11T07:31:14;54.37;;;31.40;;
11541;SDS011;5827;49.482;7.716;2023-02-11T07:33:48;51.03;;;30.23;;
11541;SDS011;5827;49.482;7.716;2023-02-11T07:35:52;46.40;;;29.23;;
11541;SDS011;5827;49.482;7.716;2023-02-11T07:37:53;46.63;;;30.80;;
11541;SDS011;5827;49.482;7.716;2023-02-11T07:39:55;48.40;;;28.83;;
11541;SDS011;5827;49.482;7.716;2023-02-11T07:41:56;51.30;;;29.13;;
11541;SDS011;5827;49.482;7.716;2023-02-11T07:44:00;50.13;;;30.23;;
11541;SDS011;5827;49.482;7.716;2023-02-11T07:46:03;48.50;;;29.47;;
11541;SDS011;5827;49.482;7.716;2023-02-11T07:48:07;54.27;;;29.90;;
11541;SDS011;5827;49.482;7.716;2023-02-11T07:50:08;48.73;;;29.93;;
11541;SDS011;5827;49.482;7.716;2023-02-11T07:52:10;51.27;;;31.57;;
11541;SDS011;5827;49.482;7.716;2023-02-11T07:54:12;52.33;;;32.47;;
11541;SDS011;5827;49.482;7.716;2023-02-11T07:56:14;52.73;;;32.37;;
11541;SDS011;5827;49.482;7.716;2023-02-11T07:58:17;50.07;;;32.23;;
11541;SDS011;5827;49.482;7.716;2023-02-11T08:00:19;48.37;;;32.17;;
11541;SDS011;5827;49.482;7.716;2023-02-11T08:02:20;50.40;;;32.50;;
11541;SDS011;5827;49.482;7.716;2023-02-11T08:04:23;52.07;;;33.03;;
11541;SDS011;5827;49.482;7.716;2023-02-11T08:06:26;53.23;;;34.20;;
11541;SDS011;5827;49.482;7.716;2023-02-11T08:08:29;50.80;;;32.70;;
11541;SDS011;5827;49.482;7.716;2023-02-11T08:10:31;56.53;;;35.33;;
11541;SDS011;5827;49.482;7.716;2023-02-11T08:12:32;55.70;;;33.07;;
11541;SDS011;5827;49.482;7.716;2023-02-11T08:14:34;54.27;;;32.97;;
11541;SDS011;5827;49.482;7.716;2023-02-11T08:16:41;53.50;;;32.73;;
11541;SDS011;5827;49.482;7.716;2023-02-11T08:21:21;49.33;;;30.43;;
11541;SDS011;5827;49.482;7.716;2023-02-11T08:23:39;46.10;;;28.73;;
11541;SDS011;5827;49.482;7.716;2023-02-11T08:25:42;46.27;;;28.50;;
11541;SDS011;5827;49.482;7.716;2023-02-11T08:27:43;48.47;;;28.80;;
11541;SDS011;5827;49.482;7.716;2023-02-11T08:29:45;43.77;;;28.73;;
11541;SDS011;5827;49.482;7.716;2023-02-11T08:31:47;47.00;;;29.97;;
11541;SDS011;5827;49.482;7.716;2023-02-11T08:33:49;46.40;;;29.77;;
11541;SDS011;5827;49.482;7.716;2023-02-11T08:35:50;47.97;;;29.27;;
11541;SDS011;5827;49.482;7.716;2023-02-11T08:37:53;44.07;;;28.43;;
11541;SDS011;5827;49.482;7.716;2023-02-11T08:39:55;42.60;;;27.03;;
11541;SDS011;5827;49.482;7.716;2023-02-11T08:42:10;40.07;;;26.37;;
11541;SDS011;5827;49.482;7.716;2023-02-11T08:44:12;41.67;;;25.93;;
11541;SDS011;5827;49.482;7.716;2023-02-11T08:46:15;38.97;;;25.30;;
11541;SDS011;5827;49.482;7.716;2023-02-11T08:48:18;40.17;;;25.60;;
11541;SDS011;5827;49.482;7.716;2023-02-11T08:50:27;41.00;;;25.17;;
11541;SDS011;5827;49.482;7.716;2023-02-11T08:52:29;43.50;;;26.00;;
11541;SDS011;5827;49.482;7.716;2023-02-11T08:54:33;34.03;;;23.30;;
11541;SDS011;5827;49.482;7.716;2023-02-11T08:56:35;38.77;;;25.87;;
11541;SDS011;5827;49.482;7.716;2023-02-11T08:58:37;38.87;;;25.00;;
11541;SDS011;5827;49.482;7.716;2023-02-11T09:00:40;39.50;;;24.13;;
11541;SDS011;5827;49.482;7.716;2023-02-11T09:02:44;35.87;;;23.30;;
11541;SDS011;5827;49.482;7.716;2023-02-11T09:04:45;36.60;;;23.30;;
11541;SDS011;5827;49.482;7.716;2023-02-11T09:06:47;31.03;;;21.07;;
11541;SDS011;5827;49.482;7.716;2023-02-11T09:08:51;33.87;;;21.00;;
11541;SDS011;5827;49.482;7.716;2023-02-11T09:10:59;34.23;;;21.57;;
11541;SDS011;5827;49.482;7.716;2023-02-11T09:13:06;34.73;;;22.40;;
11541;SDS011;5827;49.482;7.716;2023-02-11T09:15:08;32.90;;;20.77;;
11541;SDS011;5827;49.482;7.716;2023-02-11T09:17:11;32.10;;;20.20;;
11541;SDS011;5827;49.482;7.716;2023-02-11T09:19:12;28.50;;;20.63;;
11541;SDS011;5827;49.482;7.716;2023-02-11T09:21:15;28.77;;;19.97;;
11541;SDS011;5827;49.482;7.716;2023-02-11T09:23:17;32.47;;;19.87;;
11541;SDS011;5827;49.482;7.716;2023-02-11T09:25:19;31.60;;;19.97;;
11541;SDS011;5827;49.482;7.716;2023-02-11T09:27:22;31.90;;;19.43;;
11541;SDS011;5827;49.482;7.716;2023-02-11T09:29:24;32.00;;;19.63;;
11541;SDS011;5827;49.482;7.716;2023-02-11T09:31:26;29.57;;;19.00;;
11541;SDS011;5827;49.482;7.716;2023-02-11T09:33:29;28.40;;;18.90;;
11541;SDS011;5827;49.482;7.716;2023-02-11T09:35:32;27.50;;;19.10;;
11541;SDS011;5827;49.482;7.716;2023-02-11T09:37:33;24.53;;;17.30;;
11541;SDS011;5827;49.482;7.716;2023-02-11T09:39:35;25.73;;;18.00;;
11541;SDS011;5827;49.482;7.716;2023-02-11T09:41:39;28.30;;;17.83;;
11541;SDS011;5827;49.482;7.716;2023-02-11T09:43:51;27.27;;;18.17;;
11541;SDS011;5827;49.482;7.716;2023-02-11T09:45:54;27.37;;;18.20;;
11541;SDS011;5827;49.482;7.716;2023-02-11T09:47:57;25.20;;;16.77;;
11541;SDS011;5827;49.482;7.716;2023-02-11T09:50:01;26.40;;;17.57;;
11541;SDS011;5827;49.482;7.716;2023-02-11T09:52:12;28.53;;;18.50;;
11541;SDS011;5827;49.482;7.716;2023-02-11T09:54:22;26.03;;;17.17;;
11541;SDS011;5827;49.482;7.716;2023-02-11T09:56:30;25.77;;;17.10;;
11541;SDS011;5827;49.482;7.716;2023-02-11T09:58:33;26.57;;;17.47;;
11541;SDS011;5827;49.482;7.716;2023-02-11T10:00:39;29.33;;;19.10;;
11541;SDS011;5827;49.482;7.716;2023-02-11T10:02:53;26.10;;;17.60;;
11541;SDS011;5827;49.482;7.716;2023-02-11T10:05:09;25.37;;;16.87;;
11541;SDS011;5827;49.482;7.716;2023-02-11T10:07:20;26.10;;;17.87;;
11541;SDS011;5827;49.482;7.716;2023-02-11T10:09:28;25.37;;;17.37;;
11541;SDS011;5827;49.482;7.716;2023-02-11T10:11:39;28.03;;;17.30;;
11541;SDS011;5827;49.482;7.716;2023-02-11T10:13:52;25.50;;;16.43;;
11541;SDS011;5827;49.482;7.716;2023-02-11T10:16:04;24.60;;;16.93;;
11541;SDS011;5827;49.482;7.716;2023-02-11T10:18:45;28.37;;;18.03;;
11541;SDS011;5827;49.482;7.716;2023-02-11T10:20:58;32.43;;;19.63;;
11541;SDS011;5827;49.482;7.716;2023-02-11T10:23:09;28.40;;;18.33;;
11541;SDS011;5827;49.482;7.716;2023-02-11T10:25:20;31.03;;;19.30;;
11541;SDS011;5827;49.482;7.716;2023-02-11T10:27:26;32.37;;;18.50;;
11541;SDS011;5827;49.482;7.716;2023-02-11T10:29:58;29.23;;;18.30;;
11541;SDS011;5827;49.482;7.716;2023-02-11T10:32:08;30.57;;;19.43;;
11541;SDS011;5827;49.482;7.716;2023-02-11T10:34:15;31.37;;;19.80;;
11541;SDS011;5827;49.482;7.716;2023-02-11T10:36:17;29.87;;;20.37;;
11541;SDS011;5827;49.482;7.716;2023-02-11T10:38:22;32.97;;;20.10;;
11541;SDS011;5827;49.482;7.716;2023-02-11T10:40:35;33.57;;;21.13;;
11541;SDS011;5827;49.482;7.716;2023-02-11T10:42:36;36.67;;;20.83;;
11541;SDS011;5827;49.482;7.716;2023-02-11T10:44:40;34.93;;;21.97;;
11541;SDS011;5827;49.482;7.716;2023-02-11T10:46:48;36.17;;;20.87;;
11541;SDS011;5827;49.482;7.716;2023-02-11T10:48:52;31.27;;;19.47;;
11541;SDS011;5827;49.482;7.716;2023-02-11T10:50:59;36.60;;;21.03;;
11541;SDS011;5827;49.482;7.716;2023-02-11T10:53:14;32.80;;;21.00;;
11541;SDS011;5827;49.482;7.716;2023-02-11T10:55:19;36.20;;;21.33;;
11541;SDS011;5827;49.482;7.716;2023-02-11T10:57:25;35.77;;;21.27;;
11541;SDS011;5827;49.482;7.716;2023-02-11T10:59:30;34.20;;;20.80;;
11541;SDS011;5827;49.482;7.716;2023-02-11T11:01:38;35.70;;;20.43;;
11541;SDS011;5827;49.482;7.716;2023-02-11T11:03:44;35.80;;;20.63;;
11541;SDS011;5827;49.482;7.716;2023-02-11T11:05:49;32.67;;;20.23;;
11541;SDS011;5827;49.482;7.716;2023-02-11T11:07:52;37.17;;;22.03;;
11541;SDS011;5827;49.482;7.716;2023-02-11T11:09:57;29.43;;;18.73;;
11541;SDS011;5827;49.482;7.716;2023-02-11T11:12:01;33.67;;;21.97;;
11541;SDS011;5827;49.482;7.716;2023-02-11T11:14:03;36.73;;;20.60;;
11541;SDS011;5827;49.482;7.716;2023-02-11T11:16:06;32.23;;;21.03;;
11541;SDS011;5827;49.482;7.716;2023-02-11T11:18:19;33.80;;;21.27;;
11541;SDS011;5827;49.482;7.716;2023-02-11T11:20:23;35.00;;;20.67;;
11541;SDS011;5827;49.482;7.716;2023-02-11T11:22:28;30.47;;;21.20;;
11541;SDS011;5827;49.482;7.716;2023-02-11T11:24:31;32.83;;;20.63;;
11541;SDS011;5827;49.482;7.716;2023-02-11T11:26:41;33.90;;;22.03;;
11541;SDS011;5827;49.482;7.716;2023-02-11T11:28:55;33.57;;;20.47;;
11541;SDS011;5827;49.482;7.716;2023-02-11T11:30:59;32.83;;;21.80;;
11541;SDS011;5827;49.482;7.716;2023-02-11T11:33:00;32.73;;;21.27;;
11541;SDS011;5827;49.482;7.716;2023-02-11T11:35:03;36.20;;;22.67;;
11541;SDS011;5827;49.482;7.716;2023-02-11T11:37:21;35.53;;;22.40;;
11541;SDS011;5827;49.482;7.716;2023-02-11T11:39:28;33.80;;;21.70;;
11541;SDS011;5827;49.482;7.716;2023-02-11T11:41:31;32.23;;;21.87;;
11541;SDS011;5827;49.482;7.716;2023-02-11T11:43:34;29.77;;;21.17;;
11541;SDS011;5827;49.482;7.716;2023-02-11T11:45:37;32.63;;;21.03;;
11541;SDS011;5827;49.482;7.716;2023-02-11T11:47:40;33.10;;;21.20;;
11541;SDS011;5827;49.482;7.716;2023-02-11T11:49:48;30.07;;;20.97;;
11541;SDS011;5827;49.482;7.716;2023-02-11T11:51:57;33.97;;;21.73;;
11541;SDS011;5827;49.482;7.716;2023-02-11T11:54:10;32.00;;;20.57;;
11541;SDS011;5827;49.482;7.716;2023-02-11T11:56:15;31.47;;;19.60;;
11541;SDS011;5827;49.482;7.716;2023-02-11T11:58:21;26.90;;;18.73;;
11541;SDS011;5827;49.482;7.716;2023-02-11T12:00:25;29.07;;;19.70;;
11541;SDS011;5827;49.482;7.716;2023-02-11T12:02:39;31.07;;;19.87;;
11541;SDS011;5827;49.482;7.716;2023-02-11T12:04:59;31.13;;;19.63;;
11541;SDS011;5827;49.482;7.716;2023-02-11T12:07:13;29.87;;;19.13;;
11541;SDS011;5827;49.482;7.716;2023-02-11T12:09:28;31.97;;;20.03;;
11541;SDS011;5827;49.482;7.716;2023-02-11T12:11:40;30.63;;;20.57;;
11541;SDS011;5827;49.482;7.716;2023-02-11T12:13:58;29.87;;;19.77;;
11541;SDS011;5827;49.482;7.716;2023-02-11T12:16:09;31.93;;;19.63;;
11541;SDS011;5827;49.482;7.716;2023-02-11T12:18:28;34.50;;;19.87;;
11541;SDS011;5827;49.482;7.716;2023-02-11T12:20:46;28.80;;;19.03;;
11541;SDS011;5827;49.482;7.716;2023-02-11T12:23:00;29.77;;;18.30;;
11541;SDS011;5827;49.482;7.716;2023-02-11T12:25:21;31.13;;;20.10;;
11541;SDS011;5827;49.482;7.716;2023-02-11T12:27:34;28.27;;;18.90;;
11541;SDS011;5827;49.482;7.716;2023-02-11T12:29:48;28.57;;;18.60;;
11541;SDS011;5827;49.482;7.716;2023-02-11T12:32:06;31.17;;;17.93;;
11541;SDS011;5827;49.482;7.716;2023-02-11T12:34:23;24.03;;;16.80;;
11541;SDS011;5827;49.482;7.716;2023-02-11T12:36:41;31.03;;;17.33;;
11541;SDS011;5827;49.482;7.716;2023-02-11T12:39:00;24.73;;;16.33;;
11541;SDS011;5827;49.482;7.716;2023-02-11T12:43:59;25.00;;;16.80;;
11541;SDS011;5827;49.482;7.716;2023-02-11T12:46:10;23.47;;;16.13;;